Time;durP1;ratioP1;P1;durP2;ratioP2;P2;SDS_P1;SDS_P2;PMS_P1;PMS_P2;Temp;Humidity;BMP_temperature;BMP_pressure;BME280_temperature;BME280_humidity;BME280_pressure;Samples;Min_cycle;Max_cycle;Signal;HPM_P1;HPM_P2
2023/07/10 00:01:50;;;;;;;;;;;20.50;99.90;;;;;;5023068;28;19925;-80
2023/07/10 00:04:20;;;;;;;;;;;20.50;99.90;;;;;;5000444;28;19979;-80
2023/07/10 00:06:46;;;;;;;;;;;20.40;99.90;;;;;;4996897;28;19909;-79
2023/07/10 00:09:12;;;;;;;;;;;20.30;99.90;;;;;;5006245;28;19917;-80
2023/07/10 00:11:40;;;;;;;;;;;20.30;99.90;;;;;;5001150;28;20427;-79
2023/07/10 00:14:14;;;;;;;;;;;20.30;99.90;;;;;;5004956;28;20696;-79
2023/07/10 00:16:40;;;;;;;;;;;20.20;99.90;;;;;;5023770;28;19918;-79
2023/07/10 00:19:13;;;;;;;;;;;20.10;99.90;;;;;;4999755;28;19909;-80
2023/07/10 00:21:40;;;;;;;;;;;20.20;99.90;;;;;;4999872;28;20909;-80
2023/07/10 00:24:06;;;;;;;;;;;20.20;99.90;;;;;;5022495;28;19986;-79
2023/07/10 00:26:32;;;;;;;;;;;20.30;99.90;;;;;;5001275;28;19917;-79
2023/07/10 00:28:58;;;;;;;;;;;20.30;99.90;;;;;;5004326;28;19920;-79
2023/07/10 00:31:27;;;;;;;;;;;20.40;99.90;;;;;;5005345;28;20310;-79
2023/07/10 00:33:53;;;;;;;;;;;20.40;99.90;;;;;;4998200;28;20292;-78
2023/07/10 00:36:24;;;;;;;;;;;20.40;99.90;;;;;;5022505;28;19921;-80
2023/07/10 00:38:49;;;;;;;;;;;20.40;99.90;;;;;;5022342;28;20074;-78
2023/07/10 00:41:15;;;;;;;;;;;20.40;99.90;;;;;;5022800;28;19915;-80
2023/07/10 00:43:45;;;;;;;;;;;20.40;99.90;;;;;;5020691;28;19956;-79
2023/07/10 00:46:21;;;;;;;;;;;20.40;99.90;;;;;;4999115;28;20011;-79
2023/07/10 00:48:54;;;;;;;;;;;20.40;99.90;;;;;;5022476;28;20007;-79
2023/07/10 00:51:33;;;;;;;;;;;20.40;99.90;;;;;;5037538;28;20408;-79
2023/07/10 00:54:02;;;;;;;;;;;20.40;99.90;;;;;;5018187;28;22217;-78
2023/07/10 00:56:31;;;;;;;;;;;20.40;99.90;;;;;;4999874;28;19909;-79
2023/07/10 00:58:57;;;;;;;;;;;20.40;99.90;;;;;;5018444;28;19920;-80
2023/07/10 01:01:23;;;;;;;;;;;20.40;99.90;;;;;;5004304;28;19921;-80
2023/07/10 01:03:50;;;;;;;;;;;20.30;99.90;;;;;;5036333;28;20392;-79
2023/07/10 01:06:24;;;;;;;;;;;20.40;99.90;;;;;;5022349;28;19932;-80
2023/07/10 01:08:59;;;;;;;;;;;20.40;99.90;;;;;;5022480;28;19913;-79
2023/07/10 01:11:27;;;;;;;;;;;20.30;99.90;;;;;;5035805;28;20464;-79
2023/07/10 01:13:56;;;;;;;;;;;20.30;99.90;;;;;;4999231;28;20408;-78
2023/07/10 01:16:22;;;;;;;;;;;20.30;99.90;;;;;;5023047;28;19913;-79
2023/07/10 01:18:48;;;;;;;;;;;20.30;99.90;;;;;;4998157;28;20371;-79
2023/07/10 01:21:34;;;;;;;;;;;20.20;99.90;;;;;;5004651;28;19913;-80
2023/07/10 01:24:01;;;;;;;;;;;20.10;99.90;;;;;;5003213;28;19952;-79
2023/07/10 01:26:28;;;;;;;;;;;20.10;99.90;;;;;;5022239;28;19913;-80
2023/07/10 01:28:54;;;;;;;;;;;20.00;99.90;;;;;;5021542;28;19909;-80
2023/07/10 01:31:20;;;;;;;;;;;19.90;99.90;;;;;;4998067;28;19928;-79
2023/07/10 01:33:49;;;;;;;;;;;19.90;99.90;;;;;;5019483;28;19913;-79
2023/07/10 01:36:17;;;;;;;;;;;19.80;99.90;;;;;;4998747;28;19967;-79
2023/07/10 01:38:44;;;;;;;;;;;19.80;99.90;;;;;;5003012;28;19963;-80
2023/07/10 01:41:29;;;;;;;;;;;19.90;99.90;;;;;;4999162;28;19913;-80
2023/07/10 01:43:54;;;;;;;;;;;19.90;99.90;;;;;;5021120;28;19963;-79
2023/07/10 01:46:22;;;;;;;;;;;19.90;99.90;;;;;;5000594;28;19920;-80
2023/07/10 01:48:50;;;;;;;;;;;19.80;99.90;;;;;;4998978;28;19913;-79
2023/07/10 01:51:16;;;;;;;;;;;19.80;99.90;;;;;;5004062;28;19916;-78
2023/07/10 01:53:43;;;;;;;;;;;19.80;99.90;;;;;;5036861;28;19960;-80
2023/07/10 01:56:08;;;;;;;;;;;19.80;99.90;;;;;;5002796;28;19920;-79
2023/07/10 01:58:35;;;;;;;;;;;19.80;99.90;;;;;;5021507;28;19917;-79
2023/07/10 02:01:00;;;;;;;;;;;19.80;99.90;;;;;;5020902;28;19939;-80
2023/07/10 02:03:26;;;;;;;;;;;19.70;99.90;;;;;;4999167;28;20296;-80
2023/07/10 02:05:51;;;;;;;;;;;19.70;99.90;;;;;;4999449;28;20372;-79
2023/07/10 02:08:17;;;;;;;;;;;19.70;99.90;;;;;;4997906;28;20042;-79
2023/07/10 02:10:42;;;;;;;;;;;19.70;99.90;;;;;;5003515;28;19917;-79
2023/07/10 02:13:08;;;;;;;;;;;19.60;99.90;;;;;;5020930;28;19924;-78
2023/07/10 02:15:33;;;;;;;;;;;19.70;99.90;;;;;;5021501;28;19916;-79
2023/07/10 02:17:59;;;;;;;;;;;19.70;99.90;;;;;;5021627;28;19909;-79
2023/07/10 02:20:24;;;;;;;;;;;19.70;99.90;;;;;;4998972;28;20400;-78
2023/07/10 02:22:50;;;;;;;;;;;19.70;99.90;;;;;;5003020;28;20424;-79
2023/07/10 02:25:16;;;;;;;;;;;19.70;99.90;;;;;;5020924;28;19999;-79
2023/07/10 02:27:42;;;;;;;;;;;19.70;99.90;;;;;;5021367;28;20001;-79
2023/07/10 02:30:08;;;;;;;;;;;19.70;99.90;;;;;;4994454;28;20265;-78
2023/07/10 02:32:34;;;;;;;;;;;19.70;99.90;;;;;;5035660;28;19920;-78
2023/07/10 02:34:59;;;;;;;;;;;19.70;99.90;;;;;;5018818;28;19913;-78
2023/07/10 02:37:25;;;;;;;;;;;19.70;99.90;;;;;;5016521;28;19917;-78
2023/07/10 02:39:51;;;;;;;;;;;19.70;99.90;;;;;;5035290;28;19963;-78
2023/07/10 02:42:16;;;;;;;;;;;19.70;99.90;;;;;;5020833;28;19915;-78
2023/07/10 02:44:42;;;;;;;;;;;19.70;99.90;;;;;;4997487;28;19924;-79
2023/07/10 02:47:07;;;;;;;;;;;19.70;99.90;;;;;;5015854;28;19913;-79
2023/07/10 02:49:33;;;;;;;;;;;19.70;99.90;;;;;;5035757;28;19967;-78
2023/07/10 02:51:58;;;;;;;;;;;19.70;99.90;;;;;;4996222;28;20282;-78
2023/07/10 02:54:24;;;;;;;;;;;19.60;99.90;;;;;;5021052;28;19921;-79
2023/07/10 02:56:53;;;;;;;;;;;19.60;99.90;;;;;;5018385;28;19913;-78
2023/07/10 02:59:18;;;;;;;;;;;19.60;99.90;;;;;;5035988;28;19962;-78
2023/07/10 03:01:48;;;;;;;;;;;19.60;99.90;;;;;;5020290;28;19925;-79
2023/07/10 03:04:13;;;;;;;;;;;19.60;99.90;;;;;;5019957;28;19971;-78
2023/07/10 03:06:39;;;;;;;;;;;19.60;99.90;;;;;;5023629;28;19916;-78
2023/07/10 03:09:04;;;;;;;;;;;19.60;99.90;;;;;;5004778;28;19925;-78
2023/07/10 03:11:30;;;;;;;;;;;19.60;99.90;;;;;;5011223;28;19927;-78
2023/07/10 03:13:55;;;;;;;;;;;19.60;99.90;;;;;;5024885;28;19916;-79
2023/07/10 03:16:21;;;;;;;;;;;19.60;99.90;;;;;;5024723;28;19919;-78
2023/07/10 03:18:47;;;;;;;;;;;19.60;99.90;;;;;;5003269;28;22276;-78
2023/07/10 03:21:12;;;;;;;;;;;19.50;99.90;;;;;;5003384;28;19916;-78
2023/07/10 03:23:38;;;;;;;;;;;19.60;99.90;;;;;;5006985;28;20377;-78
2023/07/10 03:26:04;;;;;;;;;;;19.50;99.90;;;;;;5024161;28;19924;-78
2023/07/10 03:28:36;;;;;;;;;;;19.60;99.90;;;;;;5024380;28;19923;-79
2023/07/10 03:31:01;;;;;;;;;;;19.60;99.90;;;;;;5023488;28;19975;-78
2023/07/10 03:33:27;;;;;;;;;;;19.60;99.90;;;;;;5001227;28;19937;-78
2023/07/10 03:36:00;;;;;;;;;;;19.60;99.90;;;;;;5023710;28;20421;-78
2023/07/10 03:38:25;;;;;;;;;;;19.60;99.90;;;;;;5024057;28;19917;-78
2023/07/10 03:40:51;;;;;;;;;;;19.60;99.90;;;;;;5021285;28;20390;-79
2023/07/10 03:43:16;;;;;;;;;;;19.60;99.90;;;;;;5000353;28;20414;-79
2023/07/10 03:45:42;;;;;;;;;;;19.60;99.90;;;;;;5038481;28;19917;-78
2023/07/10 03:48:08;;;;;;;;;;;19.50;99.90;;;;;;5000353;28;20373;-78
2023/07/10 03:50:34;;;;;;;;;;;19.50;99.90;;;;;;5001385;28;20384;-78
2023/07/10 03:52:59;;;;;;;;;;;19.50;99.90;;;;;;5005047;28;19928;-79
2023/07/10 03:55:25;;;;;;;;;;;19.50;99.90;;;;;;5023428;28;19917;-78
2023/07/10 03:57:50;;;;;;;;;;;19.50;99.90;;;;;;5022234;28;19913;-78
2023/07/10 04:00:18;;;;;;;;;;;19.50;99.90;;;;;;5024451;28;19913;-78
2023/07/10 04:02:44;;;;;;;;;;;19.50;99.90;;;;;;5023507;28;19929;-80
2023/07/10 04:05:09;;;;;;;;;;;19.50;99.90;;;;;;5005885;28;19967;-79
2023/07/10 04:07:35;;;;;;;;;;;19.40;99.90;;;;;;5000919;28;19952;-79
2023/07/10 04:10:00;;;;;;;;;;;19.30;99.90;;;;;;5021385;28;19909;-79
2023/07/10 04:12:28;;;;;;;;;;;19.30;99.90;;;;;;5022673;28;19972;-80
2023/07/10 04:14:54;;;;;;;;;;;19.30;99.90;;;;;;4998274;28;20011;-79
2023/07/10 04:17:22;;;;;;;;;;;19.30;99.90;;;;;;5021725;28;20008;-79
2023/07/10 04:19:48;;;;;;;;;;;19.30;99.90;;;;;;5023409;28;19914;-78
2023/07/10 04:22:13;;;;;;;;;;;19.30;99.90;;;;;;5022290;28;20393;-78
2023/07/10 04:24:39;;;;;;;;;;;19.20;99.90;;;;;;5022995;28;19967;-79
2023/07/10 04:27:05;;;;;;;;;;;19.20;99.90;;;;;;4996454;28;19956;-78
2023/07/10 04:29:30;;;;;;;;;;;19.20;99.90;;;;;;4998734;28;20005;-79
2023/07/10 04:31:56;;;;;;;;;;;19.20;99.90;;;;;;5003977;28;19960;-79
2023/07/10 04:34:21;;;;;;;;;;;19.20;99.90;;;;;;5005503;28;20383;-79
2023/07/10 04:36:47;;;;;;;;;;;19.10;99.90;;;;;;5037278;28;19916;-79
2023/07/10 04:39:14;;;;;;;;;;;19.20;99.90;;;;;;5022730;28;19917;-78
2023/07/10 04:41:43;;;;;;;;;;;19.20;99.90;;;;;;5021039;28;19959;-79
2023/07/10 04:44:10;;;;;;;;;;;19.10;99.90;;;;;;5021542;28;19913;-79
2023/07/10 04:46:35;;;;;;;;;;;19.10;99.90;;;;;;5020989;28;19928;-79
2023/07/10 04:49:04;;;;;;;;;;;19.10;99.90;;;;;;5018254;28;19913;-79
2023/07/10 04:51:30;;;;;;;;;;;19.00;99.90;;;;;;4999734;28;19917;-78
2023/07/10 04:53:56;;;;;;;;;;;18.90;99.90;;;;;;5000650;28;19952;-78
2023/07/10 04:56:22;;;;;;;;;;;18.90;99.90;;;;;;5022169;28;20399;-80
2023/07/10 04:58:52;;;;;;;;;;;18.90;99.90;;;;;;5021860;28;20237;-79
2023/07/10 05:01:18;;;;;;;;;;;18.90;99.90;;;;;;5022037;28;19921;-79
2023/07/10 05:03:44;;;;;;;;;;;18.90;99.90;;;;;;4999937;28;19912;-79
2023/07/10 05:06:09;;;;;;;;;;;18.90;99.90;;;;;;5021589;28;21005;-80
2023/07/10 05:08:35;;;;;;;;;;;18.90;99.90;;;;;;5020315;28;19917;-79
2023/07/10 05:11:01;;;;;;;;;;;18.80;99.90;;;;;;5004506;28;19959;-79
2023/07/10 05:13:27;;;;;;;;;;;18.80;99.90;;;;;;5037841;28;19909;-80
2023/07/10 05:15:55;;;;;;;;;;;18.80;99.90;;;;;;5017867;28;20022;-79
2023/07/10 05:18:20;;;;;;;;;;;18.80;99.90;;;;;;5004457;28;19921;-80
2023/07/10 05:20:47;;;;;;;;;;;18.70;99.90;;;;;;4996924;28;19953;-79
2023/07/10 05:23:13;;;;;;;;;;;18.70;99.90;;;;;;5000064;28;19917;-79
2023/07/10 05:25:38;;;;;;;;;;;18.70;99.90;;;;;;5000329;28;20470;-79
2023/07/10 05:28:05;;;;;;;;;;;18.70;99.90;;;;;;4999972;28;19913;-79
2023/07/10 05:30:31;;;;;;;;;;;18.70;99.90;;;;;;5018889;28;19913;-81
2023/07/10 05:32:59;;;;;;;;;;;18.80;99.90;;;;;;5020634;28;19928;-80
2023/07/10 05:35:25;;;;;;;;;;;18.80;99.90;;;;;;5000302;28;19916;-79
2023/07/10 05:37:50;;;;;;;;;;;18.90;99.90;;;;;;5019289;28;19916;-79
2023/07/10 05:40:17;;;;;;;;;;;18.80;99.90;;;;;;5036743;28;22290;-79
2023/07/10 05:42:42;;;;;;;;;;;18.90;99.90;;;;;;5019689;28;20361;-79
2023/07/10 05:45:08;;;;;;;;;;;18.90;99.90;;;;;;4998938;28;19924;-79
2023/07/10 05:47:34;;;;;;;;;;;18.90;99.90;;;;;;4998205;28;20391;-79
2023/07/10 05:49:59;;;;;;;;;;;18.90;99.90;;;;;;5004279;28;19925;-80
2023/07/10 05:52:25;;;;;;;;;;;18.90;99.90;;;;;;5003244;28;19913;-79
2023/07/10 05:54:51;;;;;;;;;;;18.90;99.90;;;;;;5003017;28;19916;-80
2023/07/10 05:57:17;;;;;;;;;;;19.00;99.90;;;;;;4998070;28;19909;-79
2023/07/10 05:59:42;;;;;;;;;;;19.00;99.90;;;;;;5001429;28;20664;-79
2023/07/10 06:02:10;;;;;;;;;;;19.10;99.90;;;;;;4998201;28;19924;-79
2023/07/10 06:04:35;;;;;;;;;;;19.20;99.90;;;;;;5003714;28;19913;-78
2023/07/10 06:07:01;;;;;;;;;;;19.30;99.90;;;;;;5021095;28;19917;-78
2023/07/10 06:09:30;;;;;;;;;;;19.30;99.90;;;;;;5000555;28;19921;-78
2023/07/10 06:11:57;;;;;;;;;;;19.30;99.90;;;;;;4998291;28;19916;-78
2023/07/10 06:14:32;;;;;;;;;;;19.40;99.90;;;;;;5021466;28;19939;-78
2023/07/10 06:16:58;;;;;;;;;;;19.40;99.90;;;;;;5020683;28;19913;-78
2023/07/10 06:19:23;;;;;;;;;;;19.40;99.90;;;;;;5020224;28;20357;-79
2023/07/10 06:22:03;;;;;;;;;;;19.50;99.90;;;;;;5020737;28;20361;-78
2023/07/10 06:24:29;;;;;;;;;;;19.50;99.90;;;;;;5021310;28;19916;-79
2023/07/10 06:26:55;;;;;;;;;;;19.50;99.90;;;;;;4998842;28;20144;-79
2023/07/10 06:29:20;;;;;;;;;;;19.60;99.90;;;;;;4998964;28;20393;-78
2023/07/10 06:31:46;;;;;;;;;;;19.60;99.90;;;;;;5004387;28;19909;-79
2023/07/10 06:34:12;;;;;;;;;;;19.70;99.90;;;;;;5003350;28;19908;-79
2023/07/10 06:36:40;;;;;;;;;;;19.80;99.90;;;;;;5019450;28;20340;-79
2023/07/10 06:39:05;;;;;;;;;;;19.80;99.90;;;;;;5000210;28;20028;-79
2023/07/10 06:41:33;;;;;;;;;;;19.80;99.90;;;;;;5024080;28;20003;-79
2023/07/10 06:43:59;;;;;;;;;;;19.90;99.90;;;;;;5024410;28;19925;-80
2023/07/10 06:46:28;;;;;;;;;;;19.90;99.90;;;;;;5002650;28;19972;-79
2023/07/10 06:48:53;;;;;;;;;;;20.00;99.90;;;;;;5023762;28;19909;-79
2023/07/10 06:51:19;;;;;;;;;;;20.10;99.90;;;;;;5001749;28;19924;-79
2023/07/10 06:53:49;;;;;;;;;;;20.20;99.90;;;;;;5024051;28;19932;-79
2023/07/10 06:56:15;;;;;;;;;;;20.20;99.90;;;;;;5001849;28;19948;-79
2023/07/10 06:58:43;;;;;;;;;;;20.20;99.90;;;;;;5002508;28;20064;-79
2023/07/10 07:01:12;;;;;;;;;;;20.30;99.90;;;;;;5000674;28;20000;-79
2023/07/10 07:03:40;;;;;;;;;;;20.30;99.90;;;;;;5024913;28;19917;-80
2023/07/10 07:06:06;;;;;;;;;;;20.40;99.90;;;;;;5006993;28;19917;-79
2023/07/10 07:08:33;;;;;;;;;;;20.40;99.90;;;;;;5039722;28;19944;-78
2023/07/10 07:10:59;;;;;;;;;;;20.40;99.90;;;;;;5039322;28;20178;-80
2023/07/10 07:13:27;;;;;;;;;;;20.40;99.90;;;;;;5008451;28;19917;-79
2023/07/10 07:15:54;;;;;;;;;;;20.40;99.90;;;;;;5026504;28;20361;-79
2023/07/10 07:18:20;;;;;;;;;;;20.50;99.90;;;;;;5002076;28;19987;-79
2023/07/10 07:20:46;;;;;;;;;;;20.50;99.90;;;;;;5024799;28;19917;-79
2023/07/10 07:23:11;;;;;;;;;;;20.60;99.90;;;;;;5039607;28;19917;-79
2023/07/10 07:25:39;;;;;;;;;;;20.60;99.90;;;;;;5006562;28;20316;-80
2023/07/10 07:28:08;;;;;;;;;;;20.70;99.90;;;;;;5019296;28;20397;-79
2023/07/10 07:30:40;;;;;;;;;;;20.80;99.90;;;;;;5024259;28;19932;-79
2023/07/10 07:33:09;;;;;;;;;;;20.70;99.90;;;;;;5001274;28;19913;-80
2023/07/10 07:35:37;;;;;;;;;;;20.80;99.90;;;;;;5021569;28;19920;-80
2023/07/10 07:38:04;;;;;;;;;;;20.70;99.90;;;;;;5005724;28;19948;-79
2023/07/10 07:40:31;;;;;;;;;;;20.80;99.90;;;;;;5000905;28;19917;-79
2023/07/10 07:42:58;;;;;;;;;;;20.80;99.90;;;;;;5023855;28;19915;-80
2023/07/10 07:45:26;;;;;;;;;;;20.90;99.90;;;;;;5023401;28;19940;-80
2023/07/10 07:47:52;;;;;;;;;;;20.90;99.90;;;;;;5023867;28;19941;-80
2023/07/10 07:50:18;;;;;;;;;;;21.00;99.90;;;;;;5001159;28;19940;-79
2023/07/10 07:52:43;;;;;;;;;;;21.00;99.90;;;;;;5000780;28;20349;-79
2023/07/10 07:55:12;;;;;;;;;;;21.00;99.90;;;;;;5003648;28;19916;-80
2023/07/10 07:57:42;;;;;;;;;;;21.00;99.90;;;;;;4998708;28;19932;-79
2023/07/10 08:00:09;;;;;;;;;;;21.10;99.90;;;;;;5036853;28;19924;-80
2023/07/10 08:02:35;;;;;;;;;;;21.10;99.90;;;;;;5034368;28;19931;-80
2023/07/10 08:05:04;;;;;;;;;;;21.20;99.90;;;;;;5005730;28;19921;-80
2023/07/10 08:07:29;;;;;;;;;;;21.20;99.90;;;;;;5003946;28;20006;-79
2023/07/10 08:09:55;;;;;;;;;;;21.30;99.90;;;;;;5022153;28;19956;-79
2023/07/10 08:12:21;;;;;;;;;;;21.30;99.90;;;;;;5024083;28;19923;-80
2023/07/10 08:14:47;;;;;;;;;;;21.40;99.90;;;;;;5001435;28;19913;-80
2023/07/10 08:17:13;;;;;;;;;;;21.40;99.90;;;;;;5022791;28;19917;-80
2023/07/10 08:19:40;;;;;;;;;;;21.40;99.90;;;;;;5024510;28;19916;-80
2023/07/10 08:22:06;;;;;;;;;;;21.40;99.90;;;;;;5005627;28;20118;-79
2023/07/10 08:24:32;;;;;;;;;;;21.50;99.90;;;;;;5031462;28;19912;-79
2023/07/10 08:26:57;;;;;;;;;;;21.50;99.90;;;;;;5036464;28;19917;-78
2023/07/10 08:29:24;;;;;;;;;;;21.60;99.90;;;;;;5021102;28;19919;-78
2023/07/10 08:31:51;;;;;;;;;;;21.70;99.90;;;;;;5016330;28;19919;-79
2023/07/10 08:34:17;;;;;;;;;;;21.70;99.90;;;;;;5004075;28;19909;-79
2023/07/10 08:36:42;;;;;;;;;;;21.80;99.90;;;;;;5023111;28;19927;-79
2023/07/10 08:39:10;;;;;;;;;;;21.90;99.90;;;;;;5004598;28;19968;-78
2023/07/10 08:41:35;;;;;;;;;;;21.90;99.90;;;;;;5006509;28;19956;-79
2023/07/10 08:44:01;;;;;;;;;;;22.00;99.90;;;;;;5021876;28;19987;-80
2023/07/10 08:46:27;;;;;;;;;;;22.00;99.90;;;;;;5022224;28;19952;-80
2023/07/10 08:48:59;;;;;;;;;;;22.10;99.90;;;;;;5023164;28;20284;-79
2023/07/10 08:51:44;;;;;;;;;;;22.20;99.90;;;;;;5022264;28;19928;-79
2023/07/10 08:54:11;;;;;;;;;;;22.30;99.90;;;;;;5022647;28;20019;-79
2023/07/10 08:56:53;;;;;;;;;;;22.40;99.90;;;;;;4997165;28;19917;-79
2023/07/10 08:59:33;;;;;;;;;;;22.40;99.90;;;;;;5024143;28;20332;-79
2023/07/10 09:01:58;;;;;;;;;;;22.50;99.90;;;;;;4991277;28;20433;-80
2023/07/10 09:04:25;;;;;;;;;;;22.50;99.90;;;;;;5001403;28;19917;-80
2023/07/10 09:06:53;;;;;;;;;;;22.50;99.90;;;;;;5000083;28;19968;-79
2023/07/10 09:09:31;;;;;;;;;;;22.60;99.90;;;;;;4982953;28;19920;-80
2023/07/10 09:12:00;;;;;;;;;;;22.80;99.90;;;;;;5014412;28;19914;-79
2023/07/10 09:14:31;;;;;;;;;;;23.00;99.90;;;;;;4981855;28;20358;-80
2023/07/10 09:16:58;;;;;;;;;;;23.10;99.90;;;;;;5014221;28;19913;-79
2023/07/10 09:19:23;;;;;;;;;;;23.20;99.90;;;;;;5000408;28;19909;-80
2023/07/10 09:21:49;;;;;;;;;;;23.40;99.90;;;;;;4984665;28;19929;-79
2023/07/10 09:24:19;;;;;;;;;;;23.50;99.90;;;;;;4980722;28;19925;-81
2023/07/10 09:26:44;;;;;;;;;;;23.60;99.90;;;;;;4999885;28;20432;-80
2023/07/10 09:29:10;;;;;;;;;;;23.80;99.90;;;;;;4980551;28;19999;-80
2023/07/10 09:31:54;;;;;;;;;;;23.80;99.90;;;;;;5017468;28;20277;-81
2023/07/10 09:34:21;;;;;;;;;;;23.90;99.90;;;;;;5016229;28;19943;-81
2023/07/10 09:36:51;;;;;;;;;;;24.00;99.90;;;;;;4998825;28;20539;-80
2023/07/10 09:39:18;;;;;;;;;;;24.30;99.90;;;;;;4999156;28;19914;-81
2023/07/10 09:41:46;;;;;;;;;;;25.20;99.90;;;;;;4995171;28;19916;-82
2023/07/10 09:44:11;;;;;;;;;;;26.30;99.90;;;;;;4981522;28;20269;-79
2023/07/10 09:46:38;;;;;;;;;;;27.30;99.90;;;;;;5016482;28;19964;-80
2023/07/10 09:49:10;;;;;;;;;;;28.00;99.90;;;;;;4993106;28;19963;-80
2023/07/10 09:51:39;;;;;;;;;;;28.60;99.90;;;;;;4992433;28;19917;-81
2023/07/10 09:54:07;;;;;;;;;;;29.10;99.90;;;;;;4997482;28;20746;-80
2023/07/10 09:56:35;;;;;;;;;;;29.60;99.90;;;;;;4998467;28;20051;-81
2023/07/10 09:59:02;;;;;;;;;;;29.80;99.90;;;;;;4999854;28;19914;-82
2023/07/10 10:01:29;;;;;;;;;;;30.20;99.90;;;;;;4986141;28;19925;-83
2023/07/10 10:03:55;;;;;;;;;;;30.40;99.90;;;;;;4991684;28;20357;-83
2023/07/10 10:06:23;;;;;;;;;;;30.60;99.90;;;;;;5016880;28;20357;-83
2023/07/10 10:08:50;;;;;;;;;;;30.90;99.90;;;;;;5020819;28;20562;-82
2023/07/10 10:11:17;;;;;;;;;;;30.90;99.90;;;;;;4998853;28;19933;-82
2023/07/10 10:13:45;;;;;;;;;;;31.00;99.90;;;;;;5030658;28;20293;-82
2023/07/10 10:16:18;;;;;;;;;;;31.40;99.90;;;;;;5022444;28;20377;-83
2023/07/10 10:18:48;;;;;;;;;;;31.80;99.90;;;;;;5001504;28;19913;-82
2023/07/10 10:21:15;;;;;;;;;;;32.00;99.90;;;;;;5021064;28;20369;-81
2023/07/10 10:23:42;;;;;;;;;;;31.80;99.90;;;;;;5007843;28;19917;-82
2023/07/10 10:26:13;;;;;;;;;;;31.70;99.90;;;;;;5001974;28;19921;-83
2023/07/10 10:28:44;;;;;;;;;;;31.90;99.90;;;;;;5040483;28;19967;-82
2023/07/10 10:31:11;;;;;;;;;;;32.10;99.90;;;;;;5006100;28;19923;-82
2023/07/10 10:33:50;;;;;;;;;;;32.10;99.90;;;;;;5024050;28;19913;-82
2023/07/10 10:36:24;;;;;;;;;;;32.10;99.90;;;;;;5022521;28;19912;-82
2023/07/10 10:38:59;;;;;;;;;;;31.80;99.90;;;;;;5003757;28;19923;-82
2023/07/10 10:41:51;;;;;;;;;;;30.90;99.90;;;;;;5039491;28;19909;-81
2023/07/10 10:44:25;;;;;;;;;;;30.50;99.90;;;;;;5021494;28;20016;-81
2023/07/10 10:47:02;;;;;;;;;;;30.90;99.90;;;;;;5001165;28;19924;-81
2023/07/10 10:49:47;;;;;;;;;;;31.20;99.90;;;;;;5007826;28;19999;-82
2023/07/10 10:52:16;;;;;;;;;;;31.40;99.90;;;;;;5025029;28;20011;-81
2023/07/10 10:55:00;;;;;;;;;;;31.00;99.90;;;;;;5006284;28;20882;-81
2023/07/10 10:57:26;;;;;;;;;;;31.10;99.90;;;;;;5024550;28;20262;-81
2023/07/10 10:59:51;;;;;;;;;;;31.50;99.90;;;;;;5039766;28;19935;-82
2023/07/10 11:02:23;;;;;;;;;;;31.80;99.90;;;;;;5024872;28;20015;-81
2023/07/10 11:05:11;;;;;;;;;;;32.20;99.90;;;;;;5023507;28;19917;-81
2023/07/10 11:07:38;;;;;;;;;;;31.90;99.80;;;;;;5024424;28;20000;-81
2023/07/10 11:10:10;;;;;;;;;;;31.80;99.90;;;;;;5006076;28;19918;-83
2023/07/10 11:12:37;;;;;;;;;;;32.00;99.40;;;;;;5020089;28;20547;-82
2023/07/10 11:15:14;;;;;;;;;;;32.30;98.60;;;;;;5001375;28;19952;-81
2023/07/10 11:17:43;;;;;;;;;;;32.30;98.30;;;;;;5024199;28;20007;-82
2023/07/10 11:20:14;;;;;;;;;;;31.60;98.50;;;;;;5006660;28;19909;-82
2023/07/10 11:22:47;;;;;;;;;;;31.60;99.10;;;;;;5000183;28;19917;-81
2023/07/10 11:25:32;;;;;;;;;;;32.00;99.00;;;;;;5001182;28;19917;-82
2023/07/10 11:28:00;;;;;;;;;;;32.10;98.20;;;;;;5039535;28;19976;-81
2023/07/10 11:30:33;;;;;;;;;;;31.40;97.50;;;;;;5024246;28;19916;-81
2023/07/10 11:33:03;;;;;;;;;;;30.60;98.00;;;;;;5023581;28;19913;-81
2023/07/10 11:35:30;;;;;;;;;;;30.40;98.50;;;;;;5022002;28;19912;-81
2023/07/10 11:38:01;;;;;;;;;;;30.30;98.70;;;;;;5024550;28;20296;-82
2023/07/10 11:40:30;;;;;;;;;;;30.60;98.40;;;;;;5022327;28;19921;-81
2023/07/10 11:43:00;;;;;;;;;;;31.20;98.20;;;;;;5038387;28;19913;-81
2023/07/10 11:45:35;;;;;;;;;;;31.80;97.70;;;;;;5023003;28;20016;-82
2023/07/10 11:48:24;;;;;;;;;;;32.00;97.70;;;;;;5037969;28;19916;-82
2023/07/10 11:50:57;;;;;;;;;;;32.30;97.00;;;;;;4999330;28;19920;-83
2023/07/10 11:53:22;;;;;;;;;;;32.90;96.70;;;;;;5006711;28;20345;-82
2023/07/10 11:55:59;;;;;;;;;;;33.30;96.50;;;;;;5007115;28;19916;-82
2023/07/10 11:58:24;;;;;;;;;;;32.80;96.50;;;;;;5023685;28;19917;-82
2023/07/10 12:00:50;;;;;;;;;;;32.30;97.00;;;;;;5018811;28;19919;-82
2023/07/10 12:03:18;;;;;;;;;;;32.30;97.20;;;;;;5018140;28;19961;-82
2023/07/10 12:05:45;;;;;;;;;;;32.50;97.10;;;;;;5001685;28;19922;-82
2023/07/10 12:08:12;;;;;;;;;;;32.60;97.00;;;;;;5004306;28;19913;-82
2023/07/10 12:10:40;;;;;;;;;;;32.10;97.00;;;;;;5003412;28;19917;-82
2023/07/10 12:13:21;;;;;;;;;;;31.70;97.20;;;;;;4985621;28;19913;-82
2023/07/10 12:15:48;;;;;;;;;;;32.30;97.40;;;;;;4982066;28;19939;-82
2023/07/10 12:18:16;;;;;;;;;;;33.00;97.00;;;;;;4980470;28;19920;-82
2023/07/10 12:20:43;;;;;;;;;;;33.40;96.60;;;;;;4980674;28;19920;-82
2023/07/10 12:23:10;;;;;;;;;;;33.90;96.40;;;;;;5002284;28;19987;-82
2023/07/10 12:25:36;;;;;;;;;;;34.30;96.10;;;;;;5018553;28;19921;-82
2023/07/10 12:28:03;;;;;;;;;;;34.60;95.80;;;;;;4984819;28;20281;-82
2023/07/10 12:30:29;;;;;;;;;;;34.50;95.70;;;;;;4985705;28;19909;-81
2023/07/10 12:32:55;;;;;;;;;;;34.10;95.60;;;;;;4981588;28;19917;-81
2023/07/10 12:35:27;;;;;;;;;;;33.40;95.80;;;;;;4979938;28;19921;-82
2023/07/10 12:37:55;;;;;;;;;;;32.60;96.30;;;;;;4984000;28;19956;-82
2023/07/10 12:40:21;;;;;;;;;;;31.90;97.00;;;;;;5007426;28;19914;-81
2023/07/10 12:42:47;;;;;;;;;;;31.90;96.80;;;;;;4988935;28;19917;-82
2023/07/10 12:45:17;;;;;;;;;;;32.30;96.10;;;;;;5003407;28;19939;-82
2023/07/10 12:47:54;;;;;;;;;;;32.80;95.70;;;;;;4982172;28;19921;-81
2023/07/10 12:50:30;;;;;;;;;;;33.40;95.40;;;;;;5004778;28;19925;-82
2023/07/10 12:53:03;;;;;;;;;;;33.30;95.10;;;;;;4980807;28;20020;-82
2023/07/10 12:55:31;;;;;;;;;;;32.70;95.30;;;;;;4979872;28;19940;-82
2023/07/10 12:57:58;;;;;;;;;;;32.80;95.40;;;;;;4979363;28;20361;-82
2023/07/10 13:00:39;;;;;;;;;;;33.50;95.20;;;;;;5002473;28;19996;-83
2023/07/10 13:03:36;;;;;;;;;;;34.10;94.70;;;;;;5019227;28;19952;-82
2023/07/10 13:06:06;;;;;;;;;;;34.50;94.20;;;;;;5000011;28;19921;-82
2023/07/10 13:08:37;;;;;;;;;;;34.00;94.20;;;;;;5015322;28;19913;-82
2023/07/10 13:11:03;;;;;;;;;;;33.20;94.50;;;;;;5000649;28;20368;-82
2023/07/10 13:13:31;;;;;;;;;;;32.50;94.90;;;;;;5020064;28;19920;-82
2023/07/10 13:16:00;;;;;;;;;;;32.00;95.20;;;;;;5003583;28;19936;-82
2023/07/10 13:18:35;;;;;;;;;;;31.70;95.40;;;;;;5023691;28;20645;-82
2023/07/10 13:21:02;;;;;;;;;;;32.10;95.50;;;;;;5018737;28;20361;-82
2023/07/10 13:23:28;;;;;;;;;;;32.90;95.10;;;;;;5019984;28;19917;-82
2023/07/10 13:25:55;;;;;;;;;;;33.60;94.90;;;;;;5003851;28;19925;-82
2023/07/10 13:28:29;;;;;;;;;;;34.00;94.10;;;;;;5004102;28;19914;-82
2023/07/10 13:30:54;;;;;;;;;;;34.10;93.30;;;;;;4997414;28;19913;-82
2023/07/10 13:33:22;;;;;;;;;;;34.20;93.10;;;;;;5004040;28;19920;-82
2023/07/10 13:35:48;;;;;;;;;;;34.50;93.20;;;;;;5014581;28;20012;-82
2023/07/10 13:38:15;;;;;;;;;;;34.80;93.20;;;;;;5004493;28;19999;-82
2023/07/10 13:40:40;;;;;;;;;;;35.10;93.10;;;;;;5013938;28;19921;-82
2023/07/10 13:43:14;;;;;;;;;;;35.40;92.90;;;;;;5020948;28;19916;-83
2023/07/10 13:45:39;;;;;;;;;;;35.70;92.80;;;;;;5000354;28;19921;-83
2023/07/10 13:48:09;;;;;;;;;;;35.80;92.60;;;;;;4997557;28;20071;-82
2023/07/10 13:50:35;;;;;;;;;;;35.90;92.50;;;;;;5038567;28;19917;-83
2023/07/10 13:53:03;;;;;;;;;;;36.10;92.30;;;;;;4998930;28;19939;-82
2023/07/10 13:55:32;;;;;;;;;;;35.90;91.00;;;;;;5004370;28;19917;-83
2023/07/10 13:57:57;;;;;;;;;;;35.60;91.20;;;;;;5020922;28;20365;-82
2023/07/10 14:00:24;;;;;;;;;;;35.50;91.10;;;;;;5004395;28;19909;-82
2023/07/10 14:02:51;;;;;;;;;;;35.40;90.80;;;;;;5019446;28;19925;-81
2023/07/10 14:05:20;;;;;;;;;;;35.60;90.90;;;;;;5020462;28;19916;-82
2023/07/10 14:07:46;;;;;;;;;;;35.60;90.00;;;;;;5021346;28;19912;-81
2023/07/10 14:10:23;;;;;;;;;;;35.20;89.00;;;;;;4999856;28;19917;-82
2023/07/10 14:12:50;;;;;;;;;;;34.80;87.80;;;;;;5020476;28;19952;-81
2023/07/10 14:15:16;;;;;;;;;;;34.90;88.50;;;;;;5021772;28;19917;-82
2023/07/10 14:17:42;;;;;;;;;;;35.10;88.50;;;;;;5020369;28;19917;-82
2023/07/10 14:20:16;;;;;;;;;;;35.30;88.90;;;;;;5014590;28;20035;-81
2023/07/10 14:22:42;;;;;;;;;;;35.60;89.10;;;;;;5002638;28;19955;-82